Time;durP1;ratioP1;P1;durP2;ratioP2;P2;SDS_P1;SDS_P2;PMS_P1;PMS_P2;Temp;Humidity;BMP_temperature;BMP_pressure;BME280_temperature;BME280_humidity;BME280_pressure;Samples;Min_cycle;Max_cycle;Signal;HPM_P1;HPM_P2
2022/08/11 00:00:07;;;;;;;3.08;2.83;;;;;;;21.13;73.40;102356.63;5020845;28;20026;-74
2022/08/11 00:02:36;;;;;;;3.38;3.08;;;;;;;21.09;73.49;102350.63;5020514;28;20241;-74
2022/08/11 00:05:12;;;;;;;3.90;3.17;;;;;;;21.05;73.57;102357.94;5020649;28;20033;-75
2022/08/11 00:07:46;;;;;;;4.97;3.13;;;;;;;21.02;73.59;102362.59;5020685;28;20025;-74
2022/08/11 00:10:14;;;;;;;3.30;3.00;;;;;;;21.00;73.61;102359.16;5020069;28;20044;-74
2022/08/11 00:12:41;;;;;;;4.28;3.05;;;;;;;20.98;73.71;102364.59;5020879;28;20215;-75
2022/08/11 00:15:09;;;;;;;3.65;3.15;;;;;;;20.98;73.57;102364.59;5020578;28;20080;-75
2022/08/11 00:17:35;;;;;;;2.83;2.63;;;;;;;21.00;73.66;102362.69;5019394;28;20068;-74
2022/08/11 00:20:07;;;;;;;3.13;2.90;;;;;;;21.00;73.57;102364.50;5020283;28;20037;-75
2022/08/11 00:22:38;;;;;;;2.78;2.58;;;;;;;21.00;73.52;102360.03;5018844;28;20317;-75
2022/08/11 00:25:19;;;;;;;2.72;2.53;;;;;;;21.00;73.14;102359.16;5019329;28;20049;-74
2022/08/11 00:27:47;;;;;;;2.92;2.55;;;;;;;21.03;73.20;102367.84;5020533;28;20041;-74
2022/08/11 00:30:14;;;;;;;5.85;2.63;;;;;;;21.01;73.25;102361.75;5019941;28;20045;-74
2022/08/11 00:32:45;;;;;;;3.97;2.63;;;;;;;21.02;72.95;102365.25;5020164;28;20033;-74
2022/08/11 00:35:16;;;;;;;3.72;3.38;;;;;;;20.98;73.37;102355.75;5018592;28;20038;-74
2022/08/11 00:37:48;;;;;;;3.38;3.08;;;;;;;20.98;73.32;102363.75;5020398;28;20040;-74
2022/08/11 00:40:50;;;;;;;4.25;2.72;;;;;;;20.97;73.20;102359.34;5017992;28;20228;-74
2022/08/11 00:43:26;;;;;;;4.78;2.90;;;;;;;20.95;73.15;102363.91;4988431;28;20382;-74
2022/08/11 00:46:12;;;;;;;4.72;2.83;;;;;;;20.93;73.03;102366.66;5020446;28;20080;-74
2022/08/11 00:48:56;;;;;;;3.40;2.67;;;;;;;20.92;73.11;102362.31;5020568;28;20412;-74
2022/08/11 00:51:40;;;;;;;3.58;3.13;;;;;;;20.93;73.03;102365.81;5019592;28;20034;-74
2022/08/11 00:54:14;;;;;;;2.72;2.53;;;;;;;20.92;72.97;102358.75;5018229;28;20029;-74
2022/08/11 00:56:42;;;;;;;3.08;2.88;;;;;;;20.90;72.91;102364.19;5022053;28;20040;-74
2022/08/11 00:59:53;;;;;;;6.13;3.35;;;;;;;20.86;72.88;102360.84;5023463;28;20087;-74
2022/08/11 01:05:43;;;;;;;2.97;2.78;;;;;;;20.82;72.87;102367.31;4943324;29;20322;-74
2022/08/11 01:08:35;;;;;;;3.15;2.95;;;;;;;20.79;72.83;102348.88;5024673;28;20029;-74
2022/08/11 01:11:23;;;;;;;4.68;2.80;;;;;;;20.79;72.61;102355.97;5022322;28;20036;-74
2022/08/11 01:14:40;;;;;;;3.88;3.15;;;;;;;20.75;72.45;102357.97;5023337;28;20096;-74
2022/08/11 01:17:40;;;;;;;4.95;2.90;;;;;;;20.72;72.55;102350.19;5009891;28;20056;-74
2022/08/11 01:20:21;;;;;;;3.25;2.55;;;;;;;20.70;72.38;102344.97;5022524;28;20256;-74
2022/08/11 01:23:17;;;;;;;3.50;2.88;;;;;;;20.68;72.28;102344.19;5022013;28;20026;-74
2022/08/11 01:26:35;;;;;;;3.42;2.88;;;;;;;20.64;72.17;102345.31;5022934;28;20021;-74
2022/08/11 01:29:01;;;;;;;3.35;3.08;;;;;;;20.64;72.07;102347.13;5023231;28;20089;-74
2022/08/11 01:31:45;;;;;;;4.47;2.67;;;;;;;20.63;72.14;102345.38;5022495;28;20048;-75
2022/08/11 01:34:26;;;;;;;3.28;2.97;;;;;;;20.60;72.09;102346.41;5021215;28;20352;-75
2022/08/11 01:37:18;;;;;;;3.20;2.95;;;;;;;20.58;72.14;102343.00;5022656;28;20113;-75
2022/08/11 01:39:44;;;;;;;3.15;2.88;;;;;;;20.57;71.97;102340.41;5023072;28;20036;-74
2022/08/11 01:45:47;;;;;;;3.08;2.88;;;;;;;20.53;71.65;102339.72;4961380;29;20066;-74
2022/08/11 01:48:23;;;;;;;4.60;3.03;;;;;;;20.48;71.70;102344.47;5022292;28;20308;-75
2022/08/11 01:51:13;;;;;;;3.20;3.00;;;;;;;20.44;71.85;102341.13;5022418;28;20506;-74
2022/08/11 01:53:41;;;;;;;6.60;3.10;;;;;;;20.42;71.90;102340.38;5022545;28;20257;-75
2022/08/11 01:56:39;;;;;;;2.72;2.53;;;;;;;20.40;71.74;102344.91;5021098;28;20201;-75
2022/08/11 01:59:23;;;;;;;3.20;2.85;;;;;;;20.40;71.78;102338.75;5021499;28;20207;-74
2022/08/11 02:02:44;;;;;;;3.28;2.97;;;;;;;20.39;71.56;102345.88;5022527;28;20025;-74
2022/08/11 02:05:27;;;;;;;3.00;2.67;;;;;;;20.39;71.28;102345.88;4961474;29;20151;-74
2022/08/11 02:07:59;;;;;;;2.85;2.65;;;;;;;20.39;71.48;102345.88;5021708;28;20025;-75
2022/08/11 02:13:42;;;;;;;2.75;2.45;;;;;;;20.38;71.31;102340.66;5022037;28;20048;-74
2022/08/11 02:16:21;;;;;;;5.38;2.80;;;;;;;20.36;71.03;102346.06;5020127;28;20223;-76
2022/08/11 02:25:07;;;;;;;3.00;2.70;;;;;;;20.33;70.97;102340.91;5017627;28;20229;-75
2022/08/11 02:28:20;;;;;;;2.80;2.60;;;;;;;20.30;70.93;102341.97;5017310;28;20041;-76
2022/08/11 02:34:17;;;;;;;3.33;2.90;;;;;;;20.25;70.78;102335.19;5013947;28;20107;-76
2022/08/11 02:36:53;;;;;;;2.65;2.45;;;;;;;20.22;70.86;102335.34;5017844;28;20045;-75
2022/08/11 02:39:23;;;;;;;3.83;2.30;;;;;;;20.20;70.67;102331.94;5016093;28;20022;-76
2022/08/11 02:44:42;;;;;;;3.75;2.85;;;;;;;20.10;70.69;102321.84;5017404;28;20121;-75
2022/08/11 02:47:26;;;;;;;2.55;2.45;;;;;;;20.07;71.02;102323.81;5017766;28;20046;-75
2022/08/11 02:50:16;;;;;;;3.03;2.72;;;;;;;20.01;71.00;102318.81;5019090;28;20103;-74
2022/08/11 02:53:01;;;;;;;2.70;2.50;;;;;;;19.98;71.26;102316.34;5021311;28;20042;-74
2022/08/11 02:55:34;;;;;;;2.92;2.72;;;;;;;19.96;70.91;102313.78;5020129;28;20041;-74
2022/08/11 02:58:20;;;;;;;3.15;2.95;;;;;;;19.96;71.12;102315.59;5019532;28;20030;-74
2022/08/11 03:01:00;;;;;;;2.85;2.55;;;;;;;19.95;70.88;102320.03;5020857;28;20064;-75
2022/08/11 03:03:37;;;;;;;2.92;2.72;;;;;;;19.93;70.96;102313.94;5020494;28;20056;-74
2022/08/11 03:06:32;;;;;;;3.42;2.53;;;;;;;19.92;70.97;102314.91;5021574;28;20045;-74
2022/08/11 03:09:07;;;;;;;2.70;2.45;;;;;;;19.91;70.84;102315.84;5020959;28;20032;-74
2022/08/11 03:18:01;;;;;;;3.75;2.63;;;;;;;19.86;70.63;102315.25;5020415;28;20093;-74
2022/08/11 03:20:37;;;;;;;2.65;2.45;;;;;;;19.86;70.81;102317.91;5019790;28;20030;-75
2022/08/11 03:23:16;;;;;;;3.00;2.80;;;;;;;19.85;70.52;102311.72;5019545;28;20022;-74
2022/08/11 03:25:54;;;;;;;;;;;;;;;19.84;70.68;102315.31;5021412;28;20025;-74
2022/08/11 03:28:26;;;;;;;;;;;;;;;19.82;70.63;102311.03;5019241;28;19980;-75
2022/08/11 03:31:12;;;;;;;3.28;2.97;;;;;;;19.79;70.63;102304.09;5020460;28;19902;-74
2022/08/11 03:34:01;;;;;;;3.53;2.72;;;;;;;19.77;70.66;102307.78;5019944;28;20089;-74
2022/08/11 03:37:01;;;;;;;3.17;2.80;;;;;;;19.75;70.50;102310.53;5019789;28;20034;-74
2022/08/11 03:39:39;;;;;;;5.28;3.05;;;;;;;19.73;70.58;102310.59;5020239;28;20076;-75
2022/08/11 03:42:39;;;;;;;2.80;2.60;;;;;;;19.71;70.67;102307.16;5020362;28;20076;-74
2022/08/11 03:45:18;;;;;;;3.00;2.80;;;;;;;19.70;70.63;102309.88;5020568;28;20276;-74
2022/08/11 03:48:06;;;;;;;5.28;3.05;;;;;;;19.70;70.62;102312.53;5020342;28;20034;-74
2022/08/11 03:51:04;;;;;;;3.10;2.80;;;;;;;19.67;70.70;102310.94;5018353;28;20041;-74
2022/08/11 03:53:54;;;;;;;3.53;3.22;;;;;;;19.65;70.71;102309.31;5008245;28;20092;-74
2022/08/11 03:56:48;;;;;;;3.97;3.08;;;;;;;19.65;70.65;102314.63;5020322;28;20060;-74
2022/08/11 03:59:28;;;;;;;4.72;3.33;;;;;;;19.62;70.51;102315.63;5029086;28;20033;-74
2022/08/11 04:02:08;;;;;;;3.55;3.25;;;;;;;19.60;71.03;102304.25;5038014;28;20037;-74
2022/08/11 04:05:11;;;;;;;3.45;3.05;;;;;;;19.59;70.79;102306.97;5037898;28;20033;-74
2022/08/11 04:08:02;;;;;;;3.58;3.28;;;;;;;19.56;70.74;102308.88;5021012;28;20128;-74
2022/08/11 04:10:46;;;;;;;4.30;3.33;;;;;;;19.53;70.68;102306.38;5018442;28;20046;-75
2022/08/11 04:13:50;;;;;;;3.13;2.92;;;;;;;19.54;70.40;102304.59;5018082;28;20041;-74
2022/08/11 04:16:52;;;;;;;2.72;2.63;;;;;;;19.52;70.65;102304.66;5016742;28;20030;-74
2022/08/11 04:20:00;;;;;;;2.97;2.78;;;;;;;19.50;70.42;102311.88;5017897;28;20106;-74
2022/08/11 04:22:53;;;;;;;6.55;2.85;;;;;;;19.49;70.37;102304.00;4998967;28;20060;-74
2022/08/11 04:25:47;;;;;;;2.70;2.50;;;;;;;19.47;70.47;102304.06;5016406;28;20113;-74
2022/08/11 04:28:41;;;;;;;3.22;2.92;;;;;;;19.45;70.53;102303.28;5016325;28;20036;-74
2022/08/11 04:31:25;;;;;;;4.70;3.13;;;;;;;19.43;70.50;102302.53;5002991;28;20045;-74
2022/08/11 04:34:05;;;;;;;3.30;3.00;;;;;;;19.41;70.54;102295.56;5020969;28;20041;-74
2022/08/11 04:40:29;;;;;;;3.85;3.20;;;;;;;19.37;70.69;102311.69;5016021;28;20155;-74
2022/08/11 04:43:22;;;;;;;3.97;3.22;;;;;;;19.34;70.58;102309.19;5021167;28;20050;-74
2022/08/11 04:46:12;;;;;;;3.33;3.10;;;;;;;19.31;70.57;102311.16;5021719;28;20328;-74
2022/08/11 05:01:41;;;;;;;4.93;3.35;;;;;;;19.23;70.68;102306.28;5021124;28;20036;-74
2022/08/11 05:07:35;;;;;;;3.80;3.50;;;;;;;19.21;70.87;102316.13;5021618;28;20041;-74
2022/08/11 05:10:38;;;;;;;3.28;3.08;;;;;;;19.19;70.97;102310.00;5021832;28;20038;-74
2022/08/11 05:36:22;;;;;;;4.07;3.45;;;;;;;19.11;70.96;102320.19;5021046;28;20109;-74
2022/08/11 05:58:37;;;;;;;4.43;4.07;;;;;;;18.93;71.82;102314.91;5020063;28;20073;-74
2022/08/11 06:01:03;;;;;;;3.67;3.38;;;;;;;18.94;71.72;102315.78;5020837;28;20309;-74
2022/08/11 06:03:31;;;;;;;8.52;4.43;;;;;;;18.92;71.97;102317.66;5019574;28;20045;-74
2022/08/11 06:05:58;;;;;;;7.32;4.15;;;;;;;18.91;71.97;102318.59;5020148;28;20038;-74
2022/08/11 06:08:29;;;;;;;8.63;4.38;;;;;;;18.90;72.04;102323.06;5018852;28;20109;-74
2022/08/11 06:11:01;;;;;;;4.70;4.03;;;;;;;18.90;71.97;102316.88;5018809;28;20029;-74
2022/08/11 06:13:27;;;;;;;5.35;4.63;;;;;;;18.88;72.57;102324.06;5020129;28;20398;-74
2022/08/11 06:15:54;;;;;;;5.75;4.00;;;;;;;18.86;72.34;102329.44;5020130;28;20030;-74
2022/08/11 06:18:21;;;;;;;7.75;4.80;;;;;;;18.87;72.76;102317.06;5018011;28;20034;-74
2022/08/11 06:20:49;;;;;;;4.68;4.18;;;;;;;18.88;72.49;102322.28;5020648;28;20397;-74
2022/08/11 06:23:18;;;;;;;5.32;4.43;;;;;;;18.84;72.69;102328.66;5018925;28;20021;-74
2022/08/11 06:25:44;;;;;;;;;;;;;;;18.86;72.83;102323.28;5021391;28;20036;-74
2022/08/11 06:28:10;;;;;;;5.13;4.63;;;;;;;18.82;72.88;102319.94;5038673;28;19924;-74
2022/08/11 06:30:40;;;;;;;5.22;4.60;;;;;;;18.78;73.00;102324.50;5037850;28;20037;-74
2022/08/11 06:33:14;;;;;;;5.32;4.57;;;;;;;18.79;73.14;102320.94;5029482;28;20340;-74
2022/08/11 06:36:03;;;;;;;6.65;4.78;;;;;;;18.84;73.14;102319.84;5039659;28;20045;-74
2022/08/11 06:38:43;;;;;;;6.28;5.40;;;;;;;18.84;73.31;102325.16;5030004;28;20029;-74
2022/08/11 06:41:29;;;;;;;6.63;4.72;;;;;;;18.87;73.17;102320.56;5038555;28;20210;-74
2022/08/11 06:44:06;;;;;;;6.03;4.90;;;;;;;18.89;73.51;102316.03;5037480;28;20067;-74
2022/08/11 06:46:37;;;;;;;6.18;5.60;;;;;;;18.90;74.14;102317.75;5038955;28;20083;-74
2022/08/11 06:49:05;;;;;;;8.13;5.22;;;;;;;18.94;73.72;102321.09;5038856;28;20202;-74
2022/08/11 06:51:34;;;;;;;8.65;5.25;;;;;;;18.95;73.83;102313.03;5038710;28;20381;-74
2022/08/11 06:54:01;;;;;;;5.35;4.82;;;;;;;19.04;73.45;102321.47;5037571;28;20112;-74
2022/08/11 07:02:20;;;;;;;5.78;4.88;;;;;;;19.21;72.32;102332.06;5038878;28;20082;-74
2022/08/11 07:05:00;;;;;;;9.45;4.80;;;;;;;19.24;70.96;102325.72;5038720;28;20575;-74
2022/08/11 07:16:03;;;;;;;5.65;4.55;;;;;;;19.42;70.37;102326.50;5039084;28;20140;-74
2022/08/11 07:30:02;;;;;;;4.38;3.97;;;;;;;19.74;69.67;102322.97;5025171;28;20099;-74
2022/08/11 07:32:32;;;;;;;9.00;4.90;;;;;;;19.83;69.27;102320.72;5037341;28;20098;-74
2022/08/11 07:35:29;;;;;;;6.38;4.30;;;;;;;19.92;67.41;102314.91;5038944;28;20088;-74
2022/08/11 07:38:01;;;;;;;3.50;3.30;;;;;;;19.98;66.95;102322.53;5030773;28;20325;-75
2022/08/11 07:40:27;;;;;;;5.70;3.75;;;;;;;20.08;66.08;102322.84;5038385;28;20052;-74
2022/08/11 07:42:55;;;;;;;6.40;3.72;;;;;;;20.16;65.93;102325.09;5039509;28;20117;-74
2022/08/11 07:53:38;;;;;;;9.57;3.83;;;;;;;20.33;64.32;102317.81;5039706;28;20076;-74
2022/08/11 07:56:06;;;;;;;3.53;3.25;;;;;;;20.41;64.55;102327.16;5039756;28;20037;-74
2022/08/11 08:17:57;;;;;;;4.70;3.35;;;;;;;20.89;63.51;102331.38;5039878;28;20084;-74
2022/08/11 08:20:26;;;;;;;5.30;3.47;;;;;;;20.95;64.33;102330.16;5038843;28;20267;-74
2022/08/11 08:22:55;;;;;;;4.30;2.95;;;;;;;20.98;63.86;102327.31;5039814;28;20029;-74
2022/08/11 08:25:27;;;;;;;2.90;2.70;;;;;;;21.04;63.43;102328.72;5038014;28;20029;-74
2022/08/11 08:27:55;;;;;;;4.78;3.47;;;;;;;21.11;63.26;102327.41;5039698;28;20045;-74
2022/08/11 08:33:05;;;;;;;6.22;3.10;;;;;;;21.25;62.76;102324.75;5021997;28;20295;-74
2022/08/11 08:35:32;;;;;;;3.50;2.40;;;;;;;21.30;62.68;102316.44;5030512;28;20060;-74
2022/08/11 08:37:58;;;;;;;10.40;3.10;;;;;;;21.36;62.50;102323.22;5038608;28;20026;-74
2022/08/11 08:40:24;;;;;;;5.72;3.40;;;;;;;21.43;62.23;102324.53;5037766;28;20037;-74
2022/08/11 08:43:01;;;;;;;5.45;3.35;;;;;;;21.46;62.86;102316.38;5038037;28;20030;-74
2022/08/11 08:45:27;;;;;;;8.20;3.30;;;;;;;21.55;62.03;102321.13;5039631;28;20359;-74
2022/08/11 08:48:00;;;;;;;3.95;3.25;;;;;;;21.63;61.63;102318.81;5040099;28;20045;-74
2022/08/11 08:51:33;;;;;;;4.28;2.80;;;;;;;21.71;61.35;102322.81;5039197;28;20068;-74
2022/08/11 08:53:21;;;;;;;5.32;3.10;;;;;;;21.75;61.47;102322.50;5038803;28;20136;-74
2022/08/11 08:55:49;;;;;;;6.38;3.30;;;;;;;21.82;61.62;102317.63;5040174;28;20037;-74
2022/08/11 08:58:18;;;;;;;5.18;2.85;;;;;;;21.93;60.93;102324.94;5030676;28;20037;-74
2022/08/11 09:00:45;;;;;;;4.95;2.78;;;;;;;21.99;60.52;102314.72;5037970;28;20041;-74
2022/08/11 09:03:12;;;;;;;5.85;2.70;;;;;;;22.13;59.01;102323.63;5037726;28;20317;-74
2022/08/11 09:05:38;;;;;;;4.35;3.03;;;;;;;22.19;58.68;102321.41;5037988;28;20115;-74
2022/08/11 09:08:04;;;;;;;11.80;2.88;;;;;;;22.31;57.65;102318.91;5053535;28;20328;-74
2022/08/11 09:10:30;;;;;;;6.47;3.22;;;;;;;22.40;57.25;102312.94;5038008;28;20041;-74
2022/08/11 09:12:58;;;;;;;2.85;2.60;;;;;;;22.46;56.85;102317.00;5038296;28;20269;-74
2022/08/11 09:15:24;;;;;;;5.10;2.70;;;;;;;22.51;56.71;102314.88;5038072;28;20367;-74
2022/08/11 09:18:02;;;;;;;5.97;2.95;;;;;;;22.59;56.74;102309.84;5039991;28;20067;-74
2022/08/11 09:20:33;;;;;;;4.20;2.30;;;;;;;22.69;54.50;102302.09;5040221;28;20087;-74
2022/08/11 09:28:35;;;;;;;3.55;2.63;;;;;;;22.93;54.52;102303.03;5033332;28;20135;-74
2022/08/11 09:31:01;;;;;;;5.80;2.30;;;;;;;23.05;53.94;102301.38;5039365;28;20025;-74
2022/08/11 09:33:29;;;;;;;4.30;2.83;;;;;;;23.06;53.15;102292.38;5024292;28;20041;-74
2022/08/11 09:35:55;;;;;;;8.40;2.63;;;;;;;23.08;53.92;102294.94;5043538;28;20032;-74
2022/08/11 09:41:10;;;;;;;11.60;2.28;;;;;;;23.23;52.02;102296.53;5042083;28;20032;-74
2022/08/11 09:46:28;;;;;;;3.45;2.53;;;;;;;23.48;49.79;102284.91;5032697;28;20317;-74
2022/08/11 09:48:57;;;;;;;5.35;2.47;;;;;;;23.53;50.08;102289.94;5042364;28;20202;-74
2022/08/11 09:51:24;;;;;;;6.38;2.60;;;;;;;23.67;49.96;102287.09;5041242;28;20056;-74
2022/08/11 09:53:51;;;;;;;4.10;2.80;;;;;;;23.70;49.90;102283.34;5041712;28;20916;-74
2022/08/11 09:59:05;;;;;;;2.65;2.45;;;;;;;23.85;48.02;102284.03;5041241;28;20099;-74
2022/08/11 10:01:36;;;;;;;7.32;2.30;;;;;;;23.88;47.84;102282.00;5040416;28;20069;-74
2022/08/11 10:04:11;;;;;;;3.20;2.28;;;;;;;23.89;47.97;102280.19;5040499;28;20384;-74
2022/08/11 10:09:24;;;;;;;3.90;2.38;;;;;;;24.02;47.64;102282.81;5047450;28;20041;-74
2022/08/11 10:11:55;;;;;;;6.38;2.40;;;;;;;24.16;47.91;102282.63;5041009;28;20355;-74
2022/08/11 10:17:08;;;;;;;3.60;2.60;;;;;;;24.29;47.41;102270.00;5029209;28;20060;-74
2022/08/11 10:19:37;;;;;;;5.13;2.08;;;;;;;24.29;47.67;102272.69;5047214;28;20107;-74
2022/08/11 10:27:36;;;;;;;6.78;2.50;;;;;;;24.55;46.52;102256.44;5040663;28;20028;-74
2022/08/11 10:35:34;;;;;;;3.47;2.40;;;;;;;24.70;45.80;102255.25;5039979;28;20075;-74
2022/08/11 10:38:00;;;;;;;7.72;2.10;;;;;;;24.78;44.56;102253.81;5046610;28;20048;-74
2022/08/11 10:40:27;;;;;;;2.20;1.90;;;;;;;24.85;44.55;102257.69;5041425;28;20347;-74
2022/08/11 10:43:02;;;;;;;7.85;2.65;;;;;;;24.91;43.42;102254.53;5041627;28;20033;-74
2022/08/11 10:48:16;;;;;;;3.40;2.53;;;;;;;24.96;43.72;102246.97;5038169;28;20232;-74
2022/08/11 10:59:00;;;;;;;2.80;1.70;;;;;;;25.24;41.90;102245.63;5030279;28;20048;-74
2022/08/11 11:01:31;;;;;;;1.95;1.85;;;;;;;25.36;41.00;102237.56;5042245;28;20041;-74
2022/08/11 11:04:11;;;;;;;3.22;1.92;;;;;;;25.43;41.20;102242.31;5041966;28;20064;-75
2022/08/11 11:06:45;;;;;;;3.42;1.80;;;;;;;25.48;40.33;102244.59;5042854;28;20041;-75
2022/08/11 11:09:15;;;;;;;4.40;2.10;;;;;;;25.63;39.91;102234.44;5033118;28;20213;-75
2022/08/11 11:20:22;;;;;;;2.28;2.08;;;;;;;25.73;41.24;102238.06;5042985;28;20036;-75
2022/08/11 11:22:53;;;;;;;5.35;2.58;;;;;;;25.74;41.26;102231.72;5041908;28;20025;-75
2022/08/11 11:25:37;;;;;;;6.93;2.20;;;;;;;25.76;41.48;102232.44;5047520;28;20029;-75
2022/08/11 11:28:15;;;;;;;4.78;2.20;;;;;;;25.77;41.00;102231.44;5042536;28;20048;-75
2022/08/11 11:30:55;;;;;;;4.03;2.10;;;;;;;25.74;41.62;102228.19;5043185;28;20033;-75
2022/08/11 11:33:41;;;;;;;6.13;2.33;;;;;;;25.89;40.69;102228.72;5023286;28;20089;-74
2022/08/11 11:36:43;;;;;;;9.15;2.00;;;;;;;25.85;41.14;102229.00;5027611;28;20049;-75
2022/08/11 11:39:09;;;;;;;5.72;2.10;;;;;;;25.86;41.86;102229.84;5042369;28;20036;-75
2022/08/11 11:41:35;;;;;;;4.25;2.05;;;;;;;26.02;40.46;102224.06;5040366;28;20050;-75
2022/08/11 11:44:01;;;;;;;8.98;2.28;;;;;;;26.08;40.32;102228.91;5074686;28;20108;-75
2022/08/11 11:46:29;;;;;;;3.70;1.83;;;;;;;26.13;39.73;102221.31;5041041;28;20423;-75
2022/08/11 11:48:55;;;;;;;6.80;2.25;;;;;;;26.23;39.66;102222.25;5042611;28;20202;-75
2022/08/11 11:51:22;;;;;;;3.47;1.85;;;;;;;26.20;40.13;102219.81;5040857;28;20025;-75
2022/08/11 11:53:50;;;;;;;1.80;1.60;;;;;;;26.15;40.85;102213.97;5042487;28;20303;-75
2022/08/11 11:56:15;;;;;;;6.70;2.20;;;;;;;26.18;40.45;102210.19;5042557;28;20336;-75
2022/08/11 12:01:26;;;;;;;4.32;1.90;;;;;;;26.34;39.31;102202.50;5040814;28;20036;-75
2022/08/11 12:03:53;;;;;;;3.95;1.70;;;;;;;26.31;39.38;102205.47;5040925;28;20029;-75
2022/08/11 12:06:22;;;;;;;3.20;1.90;;;;;;;26.38;38.25;102200.41;5040813;28;20037;-75
2022/08/11 12:08:48;;;;;;;;;;;;;;;26.50;37.70;102198.47;5041397;28;20017;-75
2022/08/11 12:14:06;;;;;;;5.07;1.60;;;;;;;26.62;36.18;102202.81;5030776;28;20045;-74
2022/08/11 12:16:34;;;;;;;2.45;1.50;;;;;;;26.56;37.57;102197.94;5040948;28;20021;-75
2022/08/11 12:19:00;;;;;;;;;;;;;;;26.59;36.32;102197.66;5029901;28;20049;-75
2022/08/11 12:21:27;;;;;;;2.13;1.70;;;;;;;26.70;37.17;102196.75;5041245;28;19920;-75
2022/08/11 12:29:18;;;;;;;6.05;1.65;;;;;;;26.74;35.62;102188.31;5041535;28;20123;-75
2022/08/11 12:31:44;;;;;;;2.60;2.00;;;;;;;26.77;35.93;102179.94;5041129;28;20280;-75
2022/08/11 12:34:12;;;;;;;1.50;1.50;;;;;;;26.72;36.09;102179.50;5028358;28;20052;-75
2022/08/11 12:36:58;;;;;;;4.75;1.88;;;;;;;26.74;36.53;102177.56;5041780;28;20056;-75
2022/08/11 12:54:45;;;;;;;2.08;1.75;;;;;;;26.79;35.51;102156.47;5043382;28;20033;-75
2022/08/11 13:05:32;;;;;;;6.05;1.70;;;;;;;26.76;36.21;102145.16;5045695;28;20044;-75
2022/08/11 13:08:00;;;;;;;3.70;1.55;;;;;;;26.76;35.28;102148.72;5022925;28;20095;-75
2022/08/11 13:13:13;;;;;;;2.95;1.45;;;;;;;26.83;36.05;102140.94;5047891;28;20040;-75
2022/08/11 13:15:39;;;;;;;7.40;1.70;;;;;;;26.82;35.38;102139.25;5038734;28;20088;-75
2022/08/11 13:18:06;;;;;;;4.05;1.60;;;;;;;26.96;33.88;102143.34;5042279;28;20071;-75
2022/08/11 13:20:32;;;;;;;1.98;1.33;;;;;;;26.91;34.75;102134.88;5043617;28;20041;-75
2022/08/11 13:22:59;;;;;;;2.30;1.65;;;;;;;26.93;34.56;102136.44;5042567;28;20040;-75
2022/08/11 13:25:27;;;;;;;3.03;1.38;;;;;;;26.94;35.33;102132.78;5075740;28;20033;-75
2022/08/11 13:27:56;;;;;;;2.17;1.40;;;;;;;26.91;34.52;102135.72;5042639;28;20029;-75
2022/08/11 13:33:10;;;;;;;3.17;1.60;;;;;;;26.95;33.21;102134.44;5037126;28;20076;-77
2022/08/11 13:35:37;;;;;;;;;;;;;;;27.05;33.60;102136.31;5040893;28;20057;-75
2022/08/11 13:38:04;;;;;;;3.65;1.50;;;;;;;27.06;33.24;102132.63;5043491;28;19979;-77
2022/08/11 13:40:31;;;;;;;2.25;1.80;;;;;;;27.03;33.36;102133.75;5042277;28;20036;-75
2022/08/11 13:46:32;;;;;;;1.65;1.30;;;;;;;27.09;34.31;102129.69;5042705;28;20040;-75
2022/08/11 13:48:59;;;;;;;3.33;1.70;;;;;;;27.12;34.44;102127.56;5043015;28;20026;-75
2022/08/11 13:58:09;;;;;;;1.60;1.50;;;;;;;27.10;34.07;102123.31;5037830;28;20347;-75
2022/08/11 14:00:36;;;;;;;1.95;1.85;;;;;;;27.11;34.52;102116.94;5025225;28;20092;-75
2022/08/11 14:03:04;;;;;;;1.75;1.63;;;;;;;27.13;34.48;102115.81;5024547;28;20049;-74
2022/08/11 14:05:36;;;;;;;1.95;1.80;;;;;;;27.11;34.95;102114.25;5043147;28;20341;-75
2022/08/11 14:08:06;;;;;;;3.35;1.92;;;;;;;27.14;34.81;102113.94;5042751;28;20040;-74
2022/08/11 14:10:33;;;;;;;2.17;1.67;;;;;;;27.16;34.86;102103.91;5041829;28;20091;-74
2022/08/11 14:16:07;;;;;;;2.20;2.00;;;;;;;27.14;34.73;102097.81;5029998;28;20069;-75
2022/08/11 14:18:33;;;;;;;6.90;1.80;;;;;;;27.12;35.41;102102.50;5042157;28;20324;-75
2022/08/11 14:23:58;;;;;;;1.77;1.67;;;;;;;27.17;35.13;102089.50;5033081;28;20279;-74
2022/08/11 14:26:25;;;;;;;2.03;1.80;;;;;;;27.26;34.35;102090.47;5041718;28;20044;-74
2022/08/11 14:29:13;;;;;;;3.13;1.70;;;;;;;27.30;34.72;102090.06;5041615;28;20434;-75
2022/08/11 14:31:50;;;;;;;2.03;1.83;;;;;;;27.33;34.20;102087.09;5041486;28;20630;-74
2022/08/11 14:34:20;;;;;;;1.90;1.73;;;;;;;27.29;34.62;102077.63;5031695;28;20021;-74
2022/08/11 14:36:51;;;;;;;2.53;1.88;;;;;;;27.26;35.12;102077.91;5042861;28;20059;-74
2022/08/11 14:39:21;;;;;;;3.95;2.00;;;;;;;27.29;35.48;102088.38;5041640;28;20043;-74
2022/08/11 14:47:23;;;;;;;3.03;2.05;;;;;;;27.38;36.20;102070.56;5040430;28;20086;-74
2022/08/11 14:49:50;;;;;;;7.13;2.28;;;;;;;27.41;36.92;102078.31;5042079;28;20336;-74
2022/08/11 14:52:17;;;;;;;3.25;1.88;;;;;;;27.41;35.69;102072.94;5042746;28;20044;-74
2022/08/11 14:57:30;;;;;;;2.25;1.70;;;;;;;27.44;37.29;102071.81;5041528;28;20478;-74
2022/08/11 14:59:59;;;;;;;14.95;2.25;;;;;;;27.49;37.29;102070.41;5042553;28;20064;-74
2022/08/11 15:05:10;;;;;;;2.50;2.10;;;;;;;27.43;37.11;102065.56;5054832;28;20040;-74
2022/08/11 15:07:36;;;;;;;2.70;2.00;;;;;;;27.42;37.49;102060.34;5040262;28;20045;-74
2022/08/11 15:10:05;;;;;;;6.15;2.35;;;;;;;27.44;36.36;102064.59;5040371;28;20082;-74
2022/08/11 15:12:32;;;;;;;2.20;2.00;;;;;;;27.53;36.14;102060.19;5051198;28;20041;-74
2022/08/11 15:17:44;;;;;;;3.97;2.00;;;;;;;27.49;37.02;102054.25;5041805;28;20092;-74
2022/08/11 15:25:47;;;;;;;3.95;1.88;;;;;;;27.51;36.57;102051.44;5050823;28;20068;-74
2022/08/11 15:37:25;;;;;;;3.95;1.90;;;;;;;27.64;36.26;102053.81;5040769;28;20040;-74
2022/08/11 15:45:51;;;;;;;4.50;2.15;;;;;;;27.62;36.68;102042.34;5004654;28;20074;-74
2022/08/11 15:48:28;;;;;;;5.88;2.10;;;;;;;27.57;36.74;102042.75;4979497;28;21003;-74
2022/08/11 15:50:58;;;;;;;5.60;2.00;;;;;;;27.58;36.80;102039.09;5013526;28;20034;-74
2022/08/11 15:53:29;;;;;;;1.88;1.70;;;;;;;27.57;36.85;102037.38;5046481;28;20029;-74
2022/08/11 15:55:55;;;;;;;3.58;1.70;;;;;;;27.56;37.03;102033.84;5037779;28;20110;-74
2022/08/11 16:04:10;;;;;;;5.18;1.63;;;;;;;27.52;35.95;102034.28;5041057;28;20032;-74
2022/08/11 16:06:54;;;;;;;4.32;1.50;;;;;;;27.54;35.64;102035.84;5040580;28;20033;-74
2022/08/11 16:09:34;;;;;;;3.47;1.38;;;;;;;27.53;36.10;102030.59;5046819;28;20033;-74
2022/08/11 16:12:08;;;;;;;3.13;1.83;;;;;;;27.53;36.18;102026.06;5040519;28;20048;-74
2022/08/11 16:17:34;;;;;;;1.83;1.55;;;;;;;27.48;36.70;102027.50;5039085;28;20048;-74
2022/08/11 16:20:02;;;;;;;9.30;1.60;;;;;;;27.46;36.65;102018.72;5040333;28;20030;-74
2022/08/11 16:22:43;;;;;;;4.63;1.50;;;;;;;27.44;37.19;102026.94;5040466;28;20056;-74
2022/08/11 16:25:14;;;;;;;2.38;1.60;;;;;;;27.41;36.73;102015.63;5040823;28;20033;-75
2022/08/11 16:27:48;;;;;;;3.28;1.60;;;;;;;27.41;36.28;102008.38;5040662;28;20133;-74
2022/08/11 16:30:14;;;;;;;3.97;1.75;;;;;;;27.42;36.52;102012.78;5040022;28;20080;-74
2022/08/11 16:32:42;;;;;;;2.95;1.50;;;;;;;27.40;36.30;102012.09;5040119;28;20037;-74
2022/08/11 16:40:58;;;;;;;1.75;1.50;;;;;;;27.30;36.22;102014.78;5040498;28;20277;-74
2022/08/11 16:49:00;;;;;;;3.60;1.48;;;;;;;27.23;37.44;102010.94;5040412;28;19989;-74
2022/08/11 16:51:26;;;;;;;;;;;;;;;27.20;37.64;102009.38;5040530;28;20071;-74
2022/08/11 16:53:51;;;;;;;2.17;1.58;;;;;;;27.19;37.09;102009.53;5040377;28;19921;-75
2022/08/11 16:56:20;;;;;;;4.57;1.45;;;;;;;27.15;37.31;101997.38;5038741;28;20040;-74
2022/08/11 17:01:36;;;;;;;3.10;2.28;;;;;;;27.10;37.69;102007.69;5039935;28;20048;-74
2022/08/11 17:13:07;;;;;;;3.42;1.88;;;;;;;27.08;38.00;102001.63;4998387;28;20674;-74
2022/08/11 17:18:41;;;;;;;3.42;1.45;;;;;;;27.04;38.07;101993.00;5039634;28;20048;-74
2022/08/11 17:21:25;;;;;;;3.20;1.55;;;;;;;27.03;37.87;101996.66;5040794;28;20025;-74
2022/08/11 17:23:55;;;;;;;1.65;1.40;;;;;;;27.01;38.17;101993.25;5039886;28;20037;-74